Time;durP1;ratioP1;P1;durP2;ratioP2;P2;SDS_P1;SDS_P2;PMS_P1;PMS_P2;Temp;Humidity;BMP_temperature;BMP_pressure;BME280_temperature;BME280_humidity;BME280_pressure;Samples;Min_cycle;Max_cycle;Signal;HPM_P1;HPM_P2
2021/03/31 00:01:47;;;;;;;21.38;19.25;;;;;;;9.64;100.00;101464.03;233125;1202;103714;-73
2021/03/31 00:06:49;;;;;;;21.07;18.97;;;;;;;9.65;100.00;101457.80;233491;1202;103764;-74
2021/03/31 00:11:50;;;;;;;19.30;17.40;;;;;;;9.67;100.00;101458.63;232937;1202;103922;-73
2021/03/31 00:16:51;;;;;;;23.13;20.73;;;;;;;9.75;100.00;101454.94;232769;1202;104766;-73
2021/03/31 00:21:53;;;;;;;22.40;20.18;;;;;;;9.73;100.00;101449.66;232904;1203;103198;-73
2021/03/31 00:26:54;;;;;;;31.07;27.87;;;;;;;9.70;100.00;101447.03;232800;1203;103241;-73
2021/03/31 00:31:56;;;;;;;21.67;19.47;;;;;;;9.77;100.00;101442.48;232711;1203;103370;-75
2021/03/31 00:36:57;;;;;;;20.60;18.60;;;;;;;9.66;100.00;101443.55;232849;1203;103198;-75
2021/03/31 00:41:59;;;;;;;20.03;17.93;;;;;;;9.58;100.00;101442.85;232825;1203;103195;-74
2021/03/31 00:47:00;;;;;;;21.37;19.27;;;;;;;9.61;100.00;101444.58;232803;1203;103520;-74
2021/03/31 00:52:02;;;;;;;21.27;19.07;;;;;;;9.50;100.00;101432.33;232891;1203;103225;-73
2021/03/31 00:57:05;;;;;;;20.90;18.83;;;;;;;9.50;100.00;101436.80;232738;1203;103392;-72
2021/03/31 01:02:06;;;;;;;21.20;19.10;;;;;;;9.59;100.00;101431.27;232882;1203;103150;-74
2021/03/31 01:07:08;;;;;;;20.33;18.33;;;;;;;9.53;100.00;101421.64;232722;1203;103337;-75
2021/03/31 01:12:24;;;;;;;22.55;20.05;;;;;;;9.36;100.00;101421.06;232776;1203;103185;-71
2021/03/31 01:17:40;;;;;;;19.70;17.80;;;;;;;9.44;100.00;101431.59;233561;1203;103207;-74
2021/03/31 01:23:06;;;;;;;22.17;20.00;;;;;;;9.38;100.00;101429.91;232672;1203;103306;-74
2021/03/31 01:28:10;;;;;;;21.75;19.45;;;;;;;9.33;100.00;101429.98;233555;1203;103213;-74
2021/03/31 01:33:42;;;;;;;20.90;18.80;;;;;;;9.34;100.00;101434.41;232915;1203;103139;-75
2021/03/31 01:38:47;;;;;;;26.30;23.50;;;;;;;9.53;100.00;101432.29;232827;1203;103552;-72
2021/03/31 01:43:51;;;;;;;21.30;19.00;;;;;;;9.40;100.00;101423.64;232688;1203;103118;-74
2021/03/31 01:48:55;;;;;;;20.45;18.45;;;;;;;9.33;100.00;101418.48;232776;1203;103201;-72
2021/03/31 01:53:58;;;;;;;24.03;21.47;;;;;;;9.29;100.00;101422.08;233024;1203;103230;-74
2021/03/31 01:59:01;;;;;;;24.10;21.70;;;;;;;9.27;100.00;101414.14;232796;1203;103142;-73
2021/03/31 02:04:04;;;;;;;23.50;21.10;;;;;;;9.19;100.00;101410.73;232772;1203;103152;-74
2021/03/31 02:09:06;;;;;;;22.90;20.45;;;;;;;9.27;100.00;101416.80;232912;1203;103220;-73
2021/03/31 02:14:08;;;;;;;22.70;20.30;;;;;;;9.27;100.00;101421.25;232825;1203;103197;-73
2021/03/31 02:19:16;;;;;;;23.95;21.35;;;;;;;9.20;100.00;101418.68;232897;1203;103244;-73
2021/03/31 02:24:20;;;;;;;23.05;20.60;;;;;;;9.16;100.00;101416.13;232850;1203;103181;-73
2021/03/31 02:29:22;;;;;;;24.00;21.45;;;;;;;9.11;100.00;101409.98;232836;1203;103568;-75
2021/03/31 02:34:23;;;;;;;26.00;23.10;;;;;;;9.14;100.00;101407.28;232798;1202;103263;-74
2021/03/31 02:39:25;;;;;;;24.37;21.87;;;;;;;9.13;100.00;101410.84;232708;1203;103222;-74
2021/03/31 02:44:31;;;;;;;24.50;21.80;;;;;;;9.06;100.00;101410.95;232822;1203;103216;-74
2021/03/31 02:49:33;;;;;;;26.20;23.33;;;;;;;9.15;100.00;101409.05;232759;1203;103168;-74
2021/03/31 02:54:35;;;;;;;28.30;25.30;;;;;;;9.13;100.00;101413.51;232808;1203;103594;-74
2021/03/31 02:59:44;;;;;;;26.50;23.70;;;;;;;9.11;100.00;101402.01;233728;1203;103139;-74
2021/03/31 03:04:50;;;;;;;25.33;22.80;;;;;;;9.07;100.00;101396.76;233062;1202;103216;-73
2021/03/31 03:09:53;;;;;;;26.00;23.25;;;;;;;8.99;100.00;101401.33;232955;1202;103146;-75
2021/03/31 03:14:57;;;;;;;25.50;22.80;;;;;;;8.84;100.00;101407.80;232823;1203;103260;-74
2021/03/31 03:19:58;;;;;;;26.03;23.33;;;;;;;8.82;100.00;101404.28;232798;1203;103228;-74
2021/03/31 03:25:02;;;;;;;26.30;23.40;;;;;;;8.81;100.00;101391.02;232748;1202;103139;-73
2021/03/31 03:30:06;;;;;;;27.25;24.35;;;;;;;8.89;100.00;101387.31;233066;1203;103200;-73
2021/03/31 03:35:14;;;;;;;30.20;26.80;;;;;;;8.80;100.00;101390.13;232889;1203;103294;-73
2021/03/31 03:40:17;;;;;;;33.50;27.83;;;;;;;8.74;100.00;101380.45;232790;1203;103213;-75
2021/03/31 03:45:21;;;;;;;25.55;22.85;;;;;;;8.74;100.00;101382.25;232978;1203;103201;-73
2021/03/31 03:50:23;;;;;;;28.33;24.85;;;;;;;8.77;100.00;101380.42;232743;1203;103485;-74
2021/03/31 03:55:26;;;;;;;30.00;26.80;;;;;;;8.77;100.00;101375.10;233064;1203;103200;-73
2021/03/31 04:00:27;;;;;;;28.70;25.60;;;;;;;8.61;100.00;101379.80;232823;1203;103161;-73
2021/03/31 04:05:30;;;;;;;29.57;26.57;;;;;;;8.62;100.00;101380.66;232749;1203;103216;-73
2021/03/31 04:10:31;;;;;;;29.33;26.25;;;;;;;8.58;100.00;101376.31;232803;1203;103220;-74
2021/03/31 04:15:34;;;;;;;27.85;24.95;;;;;;;8.63;100.00;101381.56;232825;1203;103145;-74
2021/03/31 04:20:37;;;;;;;26.33;23.58;;;;;;;8.49;100.00;101382.66;232813;1202;103552;-74
2021/03/31 04:25:39;;;;;;;31.73;28.43;;;;;;;8.54;100.00;101391.44;233494;1203;103507;-75
2021/03/31 04:30:41;;;;;;;31.40;27.80;;;;;;;8.48;100.00;101380.00;233558;1203;103194;-74
2021/03/31 04:35:45;;;;;;;28.63;25.73;;;;;;;8.42;100.00;101389.80;233595;1203;103115;-74
2021/03/31 04:40:54;;;;;;;26.43;23.80;;;;;;;8.42;100.00;101387.14;233544;1202;103152;-74
2021/03/31 04:45:59;;;;;;;30.30;25.93;;;;;;;8.41;100.00;101387.17;233569;1203;104554;-75
2021/03/31 04:51:02;;;;;;;26.10;23.00;;;;;;;8.42;100.00;101392.45;233644;1203;103891;-75
2021/03/31 04:56:03;;;;;;;30.20;26.70;;;;;;;8.38;100.00;101396.08;233637;1202;103188;-74
2021/03/31 05:01:05;;;;;;;29.95;26.75;;;;;;;8.37;100.00;101389.00;232897;1202;103105;-75
2021/03/31 05:06:06;;;;;;;28.90;26.00;;;;;;;8.37;100.00;101393.42;233379;1179;114845;-75
2021/03/31 05:11:08;;;;;;;28.00;24.98;;;;;;;8.43;100.00;101394.22;233195;1178;115212;-74
2021/03/31 05:16:09;;;;;;;30.87;26.87;;;;;;;8.50;100.00;101394.16;233143;1178;115348;-76
2021/03/31 05:21:11;;;;;;;32.70;28.80;;;;;;;8.47;100.00;101400.40;233306;1179;114863;-75
2021/03/31 05:26:12;;;;;;;34.85;31.08;;;;;;;8.59;100.00;101408.17;232825;1178;115378;-75
2021/03/31 05:31:14;;;;;;;30.43;27.20;;;;;;;8.62;100.00;101404.59;233195;1178;114894;-74
2021/03/31 05:36:15;;;;;;;32.98;29.48;;;;;;;8.60;100.00;101406.38;233423;1179;115131;-76
2021/03/31 05:41:17;;;;;;;31.15;27.95;;;;;;;8.65;100.00;101407.21;232975;1173;115128;-74
2021/03/31 05:46:19;;;;;;;31.00;26.40;;;;;;;8.71;100.00;101404.45;233585;1178;115530;-72
2021/03/31 05:51:21;;;;;;;33.23;28.87;;;;;;;8.90;100.00;101406.80;234194;1179;115173;-74
2021/03/31 05:56:23;;;;;;;31.40;27.50;;;;;;;9.01;100.00;101399.53;234980;1179;115128;-74
2021/03/31 06:01:26;;;;;;;32.13;28.50;;;;;;;9.11;100.00;101402.01;233494;1179;114926;-73
2021/03/31 06:06:28;;;;;;;34.35;30.35;;;;;;;9.25;100.00;101400.88;233335;1179;114947;-76
2021/03/31 06:11:58;;;;;;;40.00;33.53;;;;;;;9.41;100.00;101406.78;233535;1180;114748;-75
2021/03/31 06:17:11;;;;;;;36.30;32.30;;;;;;;9.65;100.00;101398.34;233442;1179;115184;-75
2021/03/31 06:27:29;;;;;;;33.35;29.80;;;;;;;10.05;100.00;101382.41;234454;1178;114868;-75
2021/03/31 06:32:40;;;;;;;31.63;28.30;;;;;;;10.31;100.00;101382.73;233673;1180;115442;-75
2021/03/31 06:37:41;;;;;;;35.47;31.63;;;;;;;10.54;100.00;101387.55;233347;1180;115069;-75
2021/03/31 06:42:45;;;;;;;35.90;31.70;;;;;;;10.58;100.00;101386.55;232693;1179;115226;-75
2021/03/31 06:47:57;;;;;;;34.75;30.55;;;;;;;10.63;100.00;101390.00;233556;1179;115242;-76
2021/03/31 06:53:02;;;;;;;33.40;29.80;;;;;;;10.75;100.00;101387.93;235731;1180;115310;-75
2021/03/31 06:58:06;;;;;;;30.98;27.60;;;;;;;10.89;100.00;101388.46;234938;1179;114998;-76
2021/03/31 07:03:09;;;;;;;33.83;29.30;;;;;;;10.95;100.00;101385.63;234457;1180;115427;-75
2021/03/31 07:08:12;;;;;;;32.10;27.00;;;;;;;11.06;100.00;101377.35;233329;1179;115445;-77
2021/03/31 07:13:35;;;;;;;34.50;30.73;;;;;;;11.14;100.00;101375.36;234276;1179;114953;-72
2021/03/31 07:18:36;;;;;;;33.10;26.50;;;;;;;11.24;100.00;101375.98;234426;1178;115116;-75
2021/03/31 07:23:38;;;;;;;31.47;28.13;;;;;;;11.42;100.00;101371.04;234244;1180;115343;-74
2021/03/31 07:28:40;;;;;;;29.63;26.00;;;;;;;11.54;100.00;101372.49;233221;1180;115309;-75
2021/03/31 07:33:45;;;;;;;35.70;31.20;;;;;;;11.61;100.00;101376.74;233655;1179;115105;-76
2021/03/31 07:38:48;;;;;;;29.65;26.55;;;;;;;11.78;100.00;101376.25;232687;1179;115048;-77
2021/03/31 07:43:56;;;;;;;35.25;24.80;;;;;;;11.95;100.00;101376.64;232685;1179;115330;-76
2021/03/31 07:48:59;;;;;;;25.55;21.85;;;;;;;12.09;100.00;101364.69;233164;1180;115555;-75
2021/03/31 07:54:03;;;;;;;31.87;28.30;;;;;;;12.24;100.00;101364.21;233077;1179;115348;-76
2021/03/31 07:59:06;;;;;;;31.60;27.60;;;;;;;12.31;100.00;101369.36;233120;1179;114954;-74
2021/03/31 08:04:09;;;;;;;32.45;28.20;;;;;;;12.55;100.00;101370.37;232690;1180;115393;-74
2021/03/31 08:09:27;;;;;;;26.33;23.47;;;;;;;12.61;100.00;101370.16;232955;1179;115078;-75
2021/03/31 08:14:31;;;;;;;27.45;24.15;;;;;;;12.93;100.00;101364.66;233197;1179;115058;-74
2021/03/31 08:19:42;;;;;;;23.87;20.63;;;;;;;13.13;100.00;101363.97;232845;1179;115054;-76
2021/03/31 08:24:57;;;;;;;22.90;17.27;;;;;;;13.36;100.00;101363.14;232636;1179;115119;-77
2021/03/31 08:30:00;;;;;;;39.60;21.15;;;;;;;13.58;100.00;101365.06;233026;1179;115615;-77
2021/03/31 08:35:01;;;;;;;29.60;16.70;;;;;;;13.68;100.00;101361.09;232655;1179;115093;-78
2021/03/31 08:40:07;;;;;;;18.95;15.25;;;;;;;13.75;100.00;101359.94;233044;1179;115089;-76
2021/03/31 08:45:09;;;;;;;17.30;15.30;;;;;;;13.93;100.00;101353.00;232776;1178;115514;-74
2021/03/31 08:50:11;;;;;;;22.50;19.80;;;;;;;13.94;100.00;101351.20;232408;1179;115560;-74
2021/03/31 08:55:13;;;;;;;24.40;19.60;;;;;;;14.12;100.00;101345.11;233059;1179;115475;-76
2021/03/31 09:00:15;;;;;;;21.68;19.13;;;;;;;14.23;100.00;101351.87;233180;1179;115122;-76
2021/03/31 09:05:17;;;;;;;16.75;15.15;;;;;;;14.38;100.00;101345.86;232965;1179;115130;-74
2021/03/31 09:10:18;;;;;;;15.10;13.60;;;;;;;14.47;100.00;101345.49;232892;1179;115125;-74
2021/03/31 09:15:20;;;;;;;16.43;14.15;;;;;;;14.54;100.00;101340.77;233033;1180;115407;-76
2021/03/31 09:20:23;;;;;;;19.20;17.25;;;;;;;14.53;100.00;101333.64;233093;1179;115321;-76
2021/03/31 09:25:24;;;;;;;22.47;19.43;;;;;;;14.72;100.00;101330.20;233275;1180;115334;-76
2021/03/31 09:30:26;;;;;;;17.87;15.43;;;;;;;14.95;100.00;101330.10;233208;1179;115309;-75
2021/03/31 09:35:27;;;;;;;12.87;11.57;;;;;;;15.07;97.90;101334.07;232878;1179;115174;-73
2021/03/31 09:40:30;;;;;;;11.90;10.70;;;;;;;15.11;100.00;101314.19;234479;1179;114808;-74
2021/03/31 09:45:36;;;;;;;22.68;19.15;;;;;;;15.29;100.00;101314.31;233692;1179;115364;-75
2021/03/31 09:50:38;;;;;;;16.40;14.03;;;;;;;15.64;100.00;101317.20;233940;1179;115089;-75
2021/03/31 09:55:40;;;;;;;16.53;13.33;;;;;;;15.56;100.00;101303.24;232969;1179;114984;-76
2021/03/31 10:00:43;;;;;;;15.93;14.23;;;;;;;15.64;100.00;101298.39;232785;1180;115243;-74
2021/03/31 10:05:45;;;;;;;14.05;11.55;;;;;;;15.87;100.00;101302.70;232568;1177;115343;-73
2021/03/31 10:10:48;;;;;;;16.53;13.60;;;;;;;15.80;100.00;101294.95;232421;1177;115122;-75
2021/03/31 10:16:00;;;;;;;16.70;12.30;;;;;;;15.96;100.00;101282.55;232580;1177;115165;-75
2021/03/31 10:21:04;;;;;;;18.68;13.00;;;;;;;15.87;100.00;101286.56;233109;1177;115010;-76
2021/03/31 10:26:26;;;;;;;14.60;11.15;;;;;;;16.17;99.45;101279.76;232593;1177;115031;-77
2021/03/31 10:31:35;;;;;;;11.25;9.95;;;;;;;16.27;95.79;101282.86;232859;1177;115331;-75
2021/03/31 10:52:25;;;;;;;15.50;13.50;;;;;;;16.71;98.98;101247.44;232910;1177;115090;-74
2021/03/31 10:57:27;;;;;;;13.90;12.50;;;;;;;17.00;96.68;101239.67;232607;1177;115080;-77
2021/03/31 11:02:28;;;;;;;14.95;13.50;;;;;;;17.38;94.66;101238.53;232378;1177;115403;-77
2021/03/31 11:07:29;;;;;;;13.40;11.90;;;;;;;17.51;92.79;101239.59;232457;1177;115284;-76
2021/03/31 11:12:31;;;;;;;14.95;13.25;;;;;;;17.78;91.16;101220.10;232694;1177;115281;-74
2021/03/31 11:27:54;;;;;;;18.38;11.85;;;;;;;18.57;86.99;101213.70;232306;1178;114860;-75
2021/03/31 11:32:56;;;;;;;101.73;22.10;;;;;;;19.01;85.02;101217.34;232852;1180;114919;-77
2021/03/31 15:15:38;;;;;;;9.50;8.57;;;;;;;22.00;41.52;100930.95;234183;1176;103514;-75
2021/03/31 15:20:49;;;;;;;21.88;11.88;;;;;;;21.52;42.56;100923.85;233646;1175;113991;-75
2021/03/31 15:25:50;;;;;;;9.60;8.20;;;;;;;21.45;42.78;100923.45;233744;1175;114316;-75
2021/03/31 15:30:51;;;;;;;11.40;8.57;;;;;;;21.31;43.97;100919.11;233483;1175;113999;-76
2021/03/31 15:35:53;;;;;;;17.37;15.63;;;;;;;20.96;45.21;100908.24;233673;1175;114377;-77
2021/03/31 15:40:56;;;;;;;11.60;10.30;;;;;;;20.99;44.35;100899.89;233808;1176;114424;-76
2021/03/31 15:45:57;;;;;;;11.47;10.33;;;;;;;20.80;44.60;100898.55;234117;1176;114351;-73
2021/03/31 15:50:59;;;;;;;9.60;8.60;;;;;;;20.86;45.42;100908.92;233935;1176;114520;-74
2021/03/31 15:56:01;;;;;;;13.10;11.63;;;;;;;20.73;45.52;100893.73;233709;1176;114562;-75
2021/03/31 16:01:02;;;;;;;11.57;10.30;;;;;;;20.52;46.63;100895.17;233634;1176;114223;-74
2021/03/31 16:06:04;;;;;;;10.83;9.75;;;;;;;20.40;47.52;100887.97;233805;1176;114763;-73
2021/03/31 16:11:06;;;;;;;13.05;11.10;;;;;;;20.16;48.44;100882.51;233597;1177;114394;-74
2021/03/31 16:16:07;;;;;;;11.37;9.70;;;;;;;19.92;50.11;100877.88;234130;1176;114553;-75
2021/03/31 16:21:09;;;;;;;10.35;9.33;;;;;;;19.61;50.25;100877.35;234032;1176;114361;-76
2021/03/31 16:26:10;;;;;;;11.20;10.10;;;;;;;19.39;51.18;100870.74;234208;1176;114687;-75
2021/03/31 16:31:25;;;;;;;10.83;9.83;;;;;;;19.46;51.04;100871.16;234767;1170;122480;-76
2021/03/31 16:36:28;;;;;;;13.60;10.93;;;;;;;19.54;51.82;100868.80;233662;1177;114766;-78
2021/03/31 16:41:30;;;;;;;10.80;9.70;;;;;;;19.30;51.75;100865.11;233576;1176;114486;-76
2021/03/31 16:46:32;;;;;;;12.80;9.63;;;;;;;18.93;52.75;100861.27;233404;1176;114429;-76
2021/03/31 16:51:33;;;;;;;13.50;11.25;;;;;;;18.61;54.37;100857.99;233613;1177;115957;-75
2021/03/31 16:56:35;;;;;;;13.17;9.70;;;;;;;18.38;55.07;100854.13;233633;1176;114851;-76
2021/03/31 17:01:38;;;;;;;27.05;22.00;;;;;;;18.07;55.40;100845.31;233784;1177;114653;-79
2021/03/31 17:06:39;;;;;;;15.13;11.63;;;;;;;17.94;55.76;100840.67;233683;1176;114612;-74
2021/03/31 17:11:41;;;;;;;13.90;11.00;;;;;;;17.77;56.58;100844.45;233887;1177;114766;-75
2021/03/31 17:16:44;;;;;;;14.80;12.85;;;;;;;17.69;57.40;100839.52;234030;1176;114649;-76
2021/03/31 17:21:45;;;;;;;14.85;10.40;;;;;;;17.50;58.47;100831.75;233769;1176;114560;-78
2021/03/31 17:26:47;;;;;;;14.30;12.20;;;;;;;17.47;59.26;100839.16;233348;1177;114678;-76
2021/03/31 17:31:48;;;;;;;14.48;12.73;;;;;;;17.34;60.32;100839.89;233780;1176;114786;-78
2021/03/31 17:36:50;;;;;;;12.80;11.50;;;;;;;17.18;62.18;100825.64;234006;1176;115013;-77
2021/03/31 17:41:52;;;;;;;18.65;12.83;;;;;;;16.75;63.98;100825.49;234349;1176;114811;-78
2021/03/31 17:46:54;;;;;;;23.97;13.90;;;;;;;16.64;66.79;100823.44;233878;1176;114952;-76
2021/03/31 17:51:56;;;;;;;19.27;13.23;;;;;;;16.30;67.66;100820.02;233639;1175;114545;-75
2021/03/31 17:56:57;;;;;;;16.03;12.23;;;;;;;16.12;68.58;100816.55;233755;1169;114674;-74
2021/03/31 18:02:00;;;;;;;43.53;16.03;;;;;;;15.86;69.86;100821.58;233663;1176;128025;-75
2021/03/31 18:07:03;;;;;;;22.30;13.75;;;;;;;15.53;69.71;100825.98;233883;1176;115614;-74
2021/03/31 18:12:05;;;;;;;21.43;13.08;;;;;;;15.31;70.78;100820.88;233301;1176;114585;-76
2021/03/31 18:17:08;;;;;;;27.43;17.70;;;;;;;15.19;71.86;100822.39;233478;1175;114484;-76
2021/03/31 18:22:10;;;;;;;25.33;17.87;;;;;;;14.85;73.05;100817.92;233718;1175;114958;-75
2021/03/31 18:27:11;;;;;;;24.07;19.33;;;;;;;14.46;75.20;100817.99;233574;1176;114609;-75
2021/03/31 18:32:13;;;;;;;28.13;18.18;;;;;;;14.70;75.80;100815.06;233666;1177;114830;-75
2021/03/31 18:37:15;;;;;;;27.97;17.57;;;;;;;14.56;76.73;100813.03;233664;1175;115349;-75
2021/03/31 18:42:26;;;;;;;26.00;17.65;;;;;;;14.56;76.84;100817.55;233615;1176;114840;-78
2021/03/31 18:47:28;;;;;;;31.08;23.83;;;;;;;14.31;78.25;100802.65;233673;1177;115085;-79
2021/03/31 18:52:29;;;;;;;38.30;26.90;;;;;;;14.20;79.24;100805.89;233560;1177;114969;-78
2021/03/31 18:57:31;;;;;;;35.90;30.37;;;;;;;14.12;79.76;100803.56;233616;1177;115323;-77
2021/03/31 19:02:32;;;;;;;42.37;33.60;;;;;;;13.92;82.09;100795.61;233704;1177;114789;-79
2021/03/31 19:07:34;;;;;;;54.10;42.80;;;;;;;13.81;80.39;100794.33;233793;1176;115089;-76
2021/03/31 19:12:36;;;;;;;58.20;46.05;;;;;;;13.32;82.90;100797.41;233872;1176;114476;-77
2021/03/31 19:17:38;;;;;;;50.70;39.18;;;;;;;13.35;84.07;100791.05;233659;1176;114780;-76
2021/03/31 19:22:40;;;;;;;57.30;45.25;;;;;;;13.30;83.95;100785.03;233641;1177;114598;-75
2021/03/31 19:27:41;;;;;;;66.90;49.10;;;;;;;13.30;83.82;100787.72;233679;1176;114965;-76
2021/03/31 19:32:44;;;;;;;68.43;50.90;;;;;;;13.32;84.78;100783.17;233810;1175;114475;-77
2021/03/31 19:37:46;;;;;;;83.78;62.53;;;;;;;13.21;83.91;100779.16;233585;1176;114782;-77
2021/03/31 19:42:49;;;;;;;92.90;64.50;;;;;;;13.23;84.81;100776.40;234151;1177;115081;-75
2021/03/31 19:47:51;;;;;;;74.45;55.30;;;;;;;13.11;86.13;100772.45;235314;1175;114918;-73
2021/03/31 19:58:29;;;;;;;62.28;47.23;;;;;;;13.22;84.62;100764.84;233382;1176;115065;-77
2021/03/31 20:03:30;;;;;;;44.70;39.33;;;;;;;13.05;85.11;100756.67;233622;1176;114453;-77
2021/03/31 20:08:32;;;;;;;37.75;31.23;;;;;;;13.15;85.17;100749.98;233581;1175;114685;-78
2021/03/31 20:13:34;;;;;;;28.35;25.30;;;;;;;13.28;83.69;100744.07;233511;1176;114644;-76
2021/03/31 20:18:35;;;;;;;24.55;21.28;;;;;;;13.77;79.19;100738.27;233684;1176;114744;-77
2021/03/31 20:23:37;;;;;;;24.43;21.77;;;;;;;13.76;78.87;100731.17;234352;1176;114687;-74
2021/03/31 20:28:39;;;;;;;26.45;22.83;;;;;;;13.83;77.82;100728.11;237214;1176;114426;-75
2021/03/31 20:33:44;;;;;;;27.20;23.00;;;;;;;13.84;77.20;100721.81;237348;1177;114694;-76
2021/03/31 20:38:46;;;;;;;26.55;23.25;;;;;;;13.78;76.97;100714.08;235127;1176;114651;-77
2021/03/31 20:43:47;;;;;;;27.15;21.80;;;;;;;13.78;77.17;100724.79;233935;1176;114633;-75
2021/03/31 20:48:49;;;;;;;24.28;21.43;;;;;;;13.77;76.87;100717.69;233419;1177;115257;-75
2021/03/31 20:53:50;;;;;;;31.45;25.25;;;;;;;13.67;77.27;100716.41;233721;1176;114568;-77
2021/03/31 20:58:52;;;;;;;31.37;28.10;;;;;;;13.57;78.01;100715.10;234207;1175;114788;-76
2021/03/31 21:03:53;;;;;;;34.20;29.15;;;;;;;13.44;78.87;100709.45;234692;1175;114576;-74
2021/03/31 21:08:55;;;;;;;29.65;25.18;;;;;;;13.49;78.13;100710.97;235124;1176;114616;-75
2021/03/31 21:13:56;;;;;;;28.95;25.90;;;;;;;13.41;78.92;100709.61;235465;1176;114657;-75
2021/03/31 21:18:58;;;;;;;26.83;24.13;;;;;;;13.31;79.59;100706.45;238241;1169;115476;-76
2021/03/31 21:23:59;;;;;;;25.85;21.95;;;;;;;13.35;78.91;100700.89;238599;1175;114660;-76
2021/03/31 21:29:02;;;;;;;24.70;21.93;;;;;;;13.34;79.26;100698.27;235428;1177;114975;-75
2021/03/31 21:34:06;;;;;;;23.80;20.55;;;;;;;13.27;79.55;100697.70;234401;1175;114796;-76
2021/03/31 21:39:08;;;;;;;21.25;19.18;;;;;;;13.26;79.14;100692.39;234643;1168;114492;-78
2021/03/31 21:44:09;;;;;;;20.70;18.60;;;;;;;13.18;79.50;100688.27;235075;1175;114931;-74
2021/03/31 21:49:11;;;;;;;23.78;21.20;;;;;;;13.17;79.23;100685.67;234615;1175;114933;-76
2021/03/31 21:54:12;;;;;;;21.13;18.87;;;;;;;13.16;79.42;100689.28;233902;1175;115026;-74
2021/03/31 21:59:14;;;;;;;21.70;19.45;;;;;;;13.15;79.17;100683.07;234047;1176;114626;-75
2021/03/31 22:04:15;;;;;;;20.47;17.87;;;;;;;13.21;78.72;100680.11;233942;1175;114941;-77
2021/03/31 22:09:17;;;;;;;21.20;19.00;;;;;;;13.00;80.51;100678.42;233894;1177;114851;-76
2021/03/31 22:14:18;;;;;;;20.30;18.20;;;;;;;12.89;81.06;100676.23;233920;1175;114592;-78
2021/03/31 22:19:20;;;;;;;19.17;17.13;;;;;;;13.11;79.07;100673.43;234087;1175;114633;-77
2021/03/31 22:24:21;;;;;;;20.05;17.95;;;;;;;13.07;80.15;100679.88;233920;1176;114599;-76
2021/03/31 22:29:23;;;;;;;24.13;21.43;;;;;;;12.89;80.80;100666.41;233721;1176;114856;-77
2021/03/31 22:34:24;;;;;;;22.98;20.58;;;;;;;12.82;81.15;100667.63;234261;1177;114597;-77
2021/03/31 22:39:25;;;;;;;27.35;24.28;;;;;;;12.50;83.40;100664.56;234384;1202;103213;-80
2021/03/31 22:44:27;;;;;;;22.45;19.25;;;;;;;12.87;81.26;100651.34;234302;1202;103280;-76
2021/03/31 22:49:29;;;;;;;22.80;18.90;;;;;;;13.01;80.05;100642.70;234253;1203;103162;-78
2021/03/31 22:54:31;;;;;;;27.68;24.53;;;;;;;12.70;82.17;100638.73;234229;1202;103193;-77
2021/03/31 22:59:33;;;;;;;26.17;23.47;;;;;;;12.67;82.10;100644.23;234475;1203;103203;-76
2021/03/31 23:04:39;;;;;;;21.05;18.68;;;;;;;12.62;82.95;100630.17;236784;1201;103179;-77
2021/03/31 23:09:42;;;;;;;19.05;17.13;;;;;;;12.63;82.40;100637.27;237189;1202;103258;-75
2021/03/31 23:14:43;;;;;;;20.13;18.17;;;;;;;12.62;82.60;100630.17;239918;1201;103063;-74
2021/03/31 23:19:45;;;;;;;20.03;16.75;;;;;;;12.53;83.08;100626.12;235118;1201;103123;-77
2021/03/31 23:24:47;;;;;;;19.58;17.53;;;;;;;12.42;83.54;100608.77;234149;1201;103168;-75
2021/03/31 23:29:52;;;;;;;23.88;20.85;;;;;;;12.23;84.68;100613.16;234134;1203;103181;-77
2021/03/31 23:34:54;;;;;;;20.40;18.30;;;;;;;12.21;85.26;100602.55;234077;1202;103213;-77
2021/03/31 23:39:55;;;;;;;22.15;19.85;;;;;;;12.10;85.82;100596.80;234124;1202;103200;-76
2021/03/31 23:44:57;;;;;;;22.77;20.27;;;;;;;11.85;88.09;100587.12;234040;1203;103139;-75
2021/03/31 23:49:58;;;;;;;21.00;18.40;;;;;;;11.98;86.54;100583.98;233859;1203;103269;-76
2021/03/31 23:55:00;;;;;;;20.60;17.98;;;;;;;12.03;86.51;100581.97;234101;1203;104071;-76
